Greenview, CA (96037)

8:54 PM PST on February 25, 2017 (GMT -0800)
Scott Valley Airport (A30) | | Change Station
Active Advisory: Winter Weather Advisory

Elev 2730 ft 41.55 °N, 122.85 °W | Updated 29 seconds ago

Clear
Clear
29.6 °F
Feels Like 30 °F
N
1.0
Wind Variable Wind from ESE
Gusts 4.0 mph

Today
High -- | Low -- °F
--% Chance of Precip.
Yesterday
High -- | Low -- °F
Precip. -- in
Pressure 30.14 in
Visibility 10.0 miles
Clouds Clear
Windchill 30 °F
Dew Point 27 °F
Humidity 89%
Rainfall 0.00 in
Snow Depth Not available.
6:51 AM 5:57 PM
Waning Crescent, 0% visible
METAR KSIY 260353Z AUTO 00000KT 10SM CLR M01/M04 A3005 RMK AO2 SLP207 T10061039
Pressure 30.14 in
Visibility 10.0 miles
Clouds Clear
Windchill 30 °F
Dew Point 27 °F
Humidity 89%
Rainfall 0.00 in
Snow Depth Not available.
6:51 AM 5:57 PM
Waning Crescent, 0% visible
METAR KSIY 260353Z AUTO 00000KT 10SM CLR M01/M04 A3005 RMK AO2 SLP207 T10061039

Get Your Daily Forecast Email!

Thanks for signing up!

Be on the lookout for a verification email in your inbox.

You'll start receiving the daily forecast at 8 AM.

×

10-Day Weather Forecast

Almanac

Astronomy

Feb. 25, 2017 Rise Set
Actual Time
Civil Twilight
Nautical Twilight
Astronomical Twilight
Moon
Length of Visible Light
Length of Day
Tomorrow will be .
, % of the Moon is Illuminated

Today's Extremes

State Highs State Lows

Community

WunderPhotos

Upload Photos

1,962,540 photos uploaded!

WunderBlog® & News

Nearby

Air Quality

  Air Quality AQ Index Pollutant
Not available.

Snow Depth

Station Depth Elevation

Earthquake Activity

City Distance Mag. Time & Date
Minimum magnitude displayed is 2.5.

Coastal Water Temperatures

Place Temperature

Stations

Nearby Weather Stations

Station Location Temp. Windchill Dew Point Humidity Wind Precip. Elev Updated Type
                   

Watches & Warnings

Winter Weather Advisory
Issued: 2:37 PM PST Feb. 25, 2017 – National Weather Service

... Winter Weather Advisory remains in effect from 7 am Sunday to
4 am PST Monday...

* snow accumulations: 3 to 6 inches. Up to 1 foot above 3500
feet elevation.

* Elevation: mostly above 1500 feet.

* Timing: the highest snowfall rates are expected Sunday
afternoon.

* Locations include: higher portions of Highway 96 from Seiad
Valley to Somes Bar. Sawyers Bar Road west of Etna, and the
higher terrain of western Siskiyou County.

* Impacts: snow will create slippery, snow covered roads, and
reduce visibilities to less than a half mile or less, at times.

Precautionary/preparedness actions...

* slow down and allow extra time to reach your destination.

* Carry tire chains and be prepared for snow covered roads and
limited visibilities.

* See weather.Gov/Medford/cams for latest Road conditions.

* A Winter Weather Advisory for snow means that periods of snow
will cause travel difficulties.